Time;durP1;ratioP1;P1;durP2;ratioP2;P2;SDS_P1;SDS_P2;PMS_P1;PMS_P2;Temp;Humidity;BMP_temperature;BMP_pressure;BME280_temperature;BME280_humidity;BME280_pressure;Samples;Min_cycle;Max_cycle;Signal;HPM_P1;HPM_P2
2023/09/08 00:00:59;;;;;;;;;;;21.50;74.80;;;;;;5071567;28;1379;-69
2023/09/08 00:03:24;;;;;;;;;;;21.50;74.80;;;;;;5077208;28;1025;-68
2023/09/08 00:05:50;;;;;;;;;;;21.50;74.80;;;;;;5077205;28;877;-68
2023/09/08 00:08:15;;;;;;;;;;;21.50;74.80;;;;;;5075931;28;961;-69
2023/09/08 00:10:41;;;;;;;;;;;21.50;74.80;;;;;;5075018;28;926;-68
2023/09/08 00:13:06;;;;;;;;;;;21.50;74.80;;;;;;5076158;28;1213;-68
2023/09/08 00:15:35;;;;;;;;;;;21.50;74.80;;;;;;5077461;28;799;-69
2023/09/08 00:18:01;;;;;;;;;;;21.40;74.80;;;;;;5076126;28;1937;-68
2023/09/08 00:20:26;;;;;;;;;;;21.50;74.80;;;;;;5080092;28;1417;-69
2023/09/08 00:22:51;;;;;;;;;;;21.50;74.80;;;;;;5083321;28;1376;-68
2023/09/08 00:25:17;;;;;;;;;;;21.50;74.80;;;;;;5081493;28;921;-68
2023/09/08 00:27:42;;;;;;;;;;;21.50;74.80;;;;;;5081466;28;1240;-69
2023/09/08 00:30:08;;;;;;;;;;;21.50;74.80;;;;;;5077899;28;899;-69
2023/09/08 00:32:33;;;;;;;;;;;21.50;74.80;;;;;;5082023;28;1275;-68
2023/09/08 00:34:59;;;;;;;;;;;21.50;74.80;;;;;;5082139;28;899;-67
2023/09/08 00:37:25;;;;;;;;;;;21.50;74.80;;;;;;5079637;28;867;-69
2023/09/08 00:39:50;;;;;;;;;;;21.50;74.80;;;;;;5078934;28;1906;-69
2023/09/08 00:42:15;;;;;;;;;;;21.50;74.80;;;;;;5081683;28;1253;-68
2023/09/08 00:44:41;;;;;;;;;;;21.50;74.80;;;;;;5082383;28;906;-69
2023/09/08 00:47:06;;;;;;;;;;;21.50;74.80;;;;;;5081856;28;962;-68
2023/09/08 00:49:32;;;;;;;;;;;21.50;74.80;;;;;;5081267;28;854;-68
2023/09/08 00:51:57;;;;;;;;;;;21.50;74.80;;;;;;5081364;28;1267;-69
2023/09/08 00:54:23;;;;;;;;;;;21.40;74.80;;;;;;5080093;28;1260;-70
2023/09/08 00:56:49;;;;;;;;;;;21.50;74.80;;;;;;5080498;28;1461;-69
2023/09/08 00:59:14;;;;;;;;;;;21.50;74.80;;;;;;5077235;28;1898;-69
2023/09/08 01:01:40;;;;;;;;;;;21.50;74.80;;;;;;5076325;28;1433;-69
2023/09/08 01:04:05;;;;;;;;;;;21.50;74.80;;;;;;5078860;28;1452;-69
2023/09/08 01:06:32;;;;;;;;;;;21.50;74.80;;;;;;5081335;28;1456;-70
2023/09/08 01:08:58;;;;;;;;;;;21.50;74.80;;;;;;5079013;28;1414;-70
2023/09/08 01:11:23;;;;;;;;;;;21.40;74.80;;;;;;5080777;28;1474;-68
2023/09/08 01:13:48;;;;;;;;;;;21.50;74.80;;;;;;5080861;28;1014;-68
2023/09/08 01:16:14;;;;;;;;;;;21.50;74.80;;;;;;5084843;28;847;-68
2023/09/08 01:18:40;;;;;;;;;;;21.50;74.80;;;;;;5079279;28;1955;-68
2023/09/08 01:21:05;;;;;;;;;;;21.50;74.80;;;;;;5081035;28;1260;-68
2023/09/08 01:23:36;;;;;;;;;;;21.50;74.80;;;;;;5080516;28;871;-68
2023/09/08 01:26:08;;;;;;;;;;;21.50;74.80;;;;;;5082028;28;800;-68
2023/09/08 01:28:34;;;;;;;;;;;21.50;74.80;;;;;;5075103;28;1267;-68
2023/09/08 01:30:59;;;;;;;;;;;21.50;74.80;;;;;;5088524;28;1357;-68
2023/09/08 01:33:25;;;;;;;;;;;21.50;74.80;;;;;;5081964;28;957;-69
2023/09/08 01:35:51;;;;;;;;;;;21.50;74.80;;;;;;5079471;28;952;-69
2023/09/08 01:38:16;;;;;;;;;;;21.50;74.80;;;;;;5077322;28;1945;-69
2023/09/08 01:40:42;;;;;;;;;;;21.50;74.80;;;;;;5077135;28;1310;-68
2023/09/08 01:43:07;;;;;;;;;;;21.50;74.80;;;;;;5079098;28;1299;-69
2023/09/08 01:45:33;;;;;;;;;;;21.50;74.80;;;;;;5076829;28;910;-69
2023/09/08 01:47:58;;;;;;;;;;;21.50;74.80;;;;;;5080178;28;858;-69
2023/09/08 01:50:24;;;;;;;;;;;21.50;74.90;;;;;;5081443;28;950;-69
2023/09/08 01:52:50;;;;;;;;;;;21.50;74.80;;;;;;5080680;28;1352;-70
2023/09/08 01:55:20;;;;;;;;;;;21.50;74.80;;;;;;5076410;28;947;-69
2023/09/08 01:57:46;;;;;;;;;;;21.50;74.80;;;;;;5080118;28;1938;-69
2023/09/08 02:00:12;;;;;;;;;;;21.50;74.90;;;;;;5087245;28;898;-69
2023/09/08 02:02:37;;;;;;;;;;;21.50;74.80;;;;;;5078383;28;1229;-69
2023/09/08 02:05:03;;;;;;;;;;;21.50;74.80;;;;;;5080577;28;913;-68
2023/09/08 02:07:29;;;;;;;;;;;21.50;74.80;;;;;;5081117;28;844;-69
2023/09/08 02:09:54;;;;;;;;;;;21.50;74.90;;;;;;5080731;28;864;-69
2023/09/08 02:12:20;;;;;;;;;;;21.50;74.90;;;;;;5081711;28;1291;-70
2023/09/08 02:14:46;;;;;;;;;;;21.50;74.90;;;;;;5077267;28;925;-69
2023/09/08 02:17:11;;;;;;;;;;;21.50;74.90;;;;;;5080098;28;808;-69
2023/09/08 02:19:37;;;;;;;;;;;21.50;74.90;;;;;;5082362;28;1902;-69
2023/09/08 02:22:02;;;;;;;;;;;21.50;74.90;;;;;;5081055;28;1343;-69
2023/09/08 02:24:28;;;;;;;;;;;21.50;74.90;;;;;;5079560;28;970;-69
2023/09/08 02:26:53;;;;;;;;;;;21.50;74.90;;;;;;5081626;28;835;-68
2023/09/08 02:29:19;;;;;;;;;;;21.50;74.90;;;;;;5080279;28;1311;-69
2023/09/08 02:31:44;;;;;;;;;;;21.50;74.90;;;;;;5077183;28;1269;-69
2023/09/08 02:34:11;;;;;;;;;;;21.50;74.90;;;;;;5079169;28;828;-69
2023/09/08 02:36:36;;;;;;;;;;;21.50;74.90;;;;;;5077574;28;832;-70
2023/09/08 02:39:02;;;;;;;;;;;21.40;74.80;;;;;;5075566;28;1965;-69
2023/09/08 02:41:27;;;;;;;;;;;21.50;74.90;;;;;;5079151;28;1349;-70
2023/09/08 02:43:53;;;;;;;;;;;21.50;74.90;;;;;;5077526;28;867;-68
2023/09/08 02:46:18;;;;;;;;;;;21.50;74.90;;;;;;5081111;28;859;-68
2023/09/08 02:48:44;;;;;;;;;;;21.50;74.90;;;;;;5079783;28;823;-68
2023/09/08 02:51:09;;;;;;;;;;;21.50;74.90;;;;;;5084145;28;1354;-68
2023/09/08 02:53:34;;;;;;;;;;;21.50;74.90;;;;;;5078166;28;4170;-68
2023/09/08 02:56:00;;;;;;;;;;;21.50;74.90;;;;;;5080532;28;1371;-68
2023/09/08 02:58:26;;;;;;;;;;;21.50;74.90;;;;;;5074034;28;1909;-68
2023/09/08 03:00:52;;;;;;;;;;;21.50;74.90;;;;;;5075873;28;1365;-68
2023/09/08 03:03:20;;;;;;;;;;;21.40;74.90;;;;;;5080791;28;839;-68
2023/09/08 03:05:45;;;;;;;;;;;21.50;74.90;;;;;;5078625;28;812;-69
2023/09/08 03:08:11;;;;;;;;;;;21.50;75.00;;;;;;5086433;28;1017;-67
2023/09/08 03:10:36;;;;;;;;;;;21.50;74.90;;;;;;5078569;28;859;-69
2023/09/08 03:13:02;;;;;;;;;;;21.50;74.90;;;;;;5078899;28;1300;-68
2023/09/08 03:15:28;;;;;;;;;;;21.50;75.00;;;;;;5076165;28;859;-68
2023/09/08 03:17:58;;;;;;;;;;;21.40;74.90;;;;;;5076535;28;1949;-68
2023/09/08 03:20:24;;;;;;;;;;;21.40;74.90;;;;;;5078642;28;1390;-68
2023/09/08 03:22:49;;;;;;;;;;;21.50;74.90;;;;;;5076202;28;1356;-68
2023/09/08 03:25:15;;;;;;;;;;;21.50;75.00;;;;;;5076186;28;875;-68
2023/09/08 03:27:40;;;;;;;;;;;21.40;74.90;;;;;;5088097;28;971;-68
2023/09/08 03:30:06;;;;;;;;;;;21.40;74.90;;;;;;5073872;28;868;-68
2023/09/08 03:32:31;;;;;;;;;;;21.50;74.90;;;;;;5078241;28;1361;-69
2023/09/08 03:34:57;;;;;;;;;;;21.40;74.90;;;;;;5077545;28;982;-68
2023/09/08 03:37:22;;;;;;;;;;;21.40;74.90;;;;;;5072781;28;854;-67
2023/09/08 03:39:48;;;;;;;;;;;21.40;75.00;;;;;;5074298;28;1929;-68
2023/09/08 03:42:13;;;;;;;;;;;21.50;75.00;;;;;;5079874;28;1357;-68
2023/09/08 03:44:39;;;;;;;;;;;21.40;75.00;;;;;;5077543;28;954;-69
2023/09/08 03:47:05;;;;;;;;;;;21.50;75.00;;;;;;5077459;28;991;-68
2023/09/08 03:49:30;;;;;;;;;;;21.50;74.90;;;;;;5078025;28;937;-68
2023/09/08 03:51:58;;;;;;;;;;;21.40;74.90;;;;;;5079544;28;1297;-69
2023/09/08 03:54:23;;;;;;;;;;;21.40;74.90;;;;;;5079324;28;832;-69
2023/09/08 03:56:49;;;;;;;;;;;21.40;75.00;;;;;;5076025;28;792;-69
2023/09/08 03:59:14;;;;;;;;;;;21.40;75.00;;;;;;5078981;28;1921;-69
2023/09/08 04:01:39;;;;;;;;;;;21.40;74.90;;;;;;5078530;28;1355;-69
2023/09/08 04:04:05;;;;;;;;;;;21.40;75.00;;;;;;5076889;28;895;-69
2023/09/08 04:06:30;;;;;;;;;;;21.40;75.00;;;;;;5076190;28;852;-69
2023/09/08 04:08:56;;;;;;;;;;;21.40;74.90;;;;;;5075843;28;878;-69
2023/09/08 04:11:21;;;;;;;;;;;21.40;74.90;;;;;;5077849;28;1274;-69
2023/09/08 04:13:47;;;;;;;;;;;21.40;75.00;;;;;;5075792;28;808;-69
2023/09/08 04:16:12;;;;;;;;;;;21.40;75.00;;;;;;5078961;28;1044;-69
2023/09/08 04:18:38;;;;;;;;;;;21.40;74.90;;;;;;5075563;28;1949;-69
2023/09/08 04:21:06;;;;;;;;;;;21.40;74.90;;;;;;5075915;28;1277;-68
2023/09/08 04:23:31;;;;;;;;;;;21.40;75.00;;;;;;5078999;28;906;-68
2023/09/08 04:25:56;;;;;;;;;;;21.40;75.00;;;;;;5080338;28;855;-68
2023/09/08 04:28:22;;;;;;;;;;;21.40;75.00;;;;;;5077004;28;1245;-69
2023/09/08 04:30:47;;;;;;;;;;;21.40;75.00;;;;;;5074219;28;1288;-68
2023/09/08 04:33:13;;;;;;;;;;;21.40;75.00;;;;;;5077521;28;891;-67
2023/09/08 04:35:38;;;;;;;;;;;21.40;75.00;;;;;;5079151;28;780;-69
2023/09/08 04:38:04;;;;;;;;;;;21.40;75.00;;;;;;5077954;28;1965;-68
2023/09/08 04:40:29;;;;;;;;;;;21.40;75.00;;;;;;5079576;28;862;-68
2023/09/08 04:42:54;;;;;;;;;;;21.40;75.00;;;;;;5078428;28;1774;-68
2023/09/08 04:45:20;;;;;;;;;;;21.50;75.00;;;;;;5081079;28;1287;-68
2023/09/08 04:47:46;;;;;;;;;;;21.50;75.00;;;;;;5079801;28;800;-68
2023/09/08 04:50:12;;;;;;;;;;;21.50;75.00;;;;;;5075287;28;846;-69
2023/09/08 04:52:37;;;;;;;;;;;21.40;75.00;;;;;;5076002;28;1297;-68
2023/09/08 04:55:03;;;;;;;;;;;21.40;75.00;;;;;;5075584;28;847;-68
2023/09/08 04:57:28;;;;;;;;;;;21.40;75.00;;;;;;5074965;28;828;-68
2023/09/08 04:59:54;;;;;;;;;;;21.40;75.00;;;;;;5073689;28;1931;-69
2023/09/08 05:02:19;;;;;;;;;;;21.40;75.00;;;;;;5082760;28;1256;-69
2023/09/08 05:04:45;;;;;;;;;;;21.40;75.00;;;;;;5077591;28;882;-69
2023/09/08 05:07:12;;;;;;;;;;;21.40;75.00;;;;;;5079783;28;1341;-69
2023/09/08 05:09:37;;;;;;;;;;;21.40;75.00;;;;;;5080135;28;875;-69
2023/09/08 05:12:03;;;;;;;;;;;21.40;75.00;;;;;;5082895;28;1234;-69
2023/09/08 05:14:28;;;;;;;;;;;21.40;75.00;;;;;;5082152;28;766;-70
2023/09/08 05:16:56;;;;;;;;;;;21.40;75.00;;;;;;5082505;28;1073;-69
2023/09/08 05:19:22;;;;;;;;;;;21.40;75.00;;;;;;5077641;28;1901;-68
2023/09/08 05:21:49;;;;;;;;;;;21.40;75.00;;;;;;5084329;28;1296;-68
2023/09/08 05:24:14;;;;;;;;;;;21.40;75.00;;;;;;5075367;28;835;-68
2023/09/08 05:26:41;;;;;;;;;;;21.40;75.00;;;;;;5077358;28;1337;-69
2023/09/08 05:29:06;;;;;;;;;;;21.40;75.10;;;;;;5079279;28;1558;-69
2023/09/08 05:31:31;;;;;;;;;;;21.40;75.00;;;;;;5085394;28;1672;-68
2023/09/08 05:33:57;;;;;;;;;;;21.50;75.10;;;;;;5077036;28;907;-68
2023/09/08 05:36:22;;;;;;;;;;;21.40;75.10;;;;;;5082278;28;815;-68
2023/09/08 05:38:48;;;;;;;;;;;21.40;75.00;;;;;;5078472;28;1933;-68
2023/09/08 05:41:13;;;;;;;;;;;21.40;75.00;;;;;;5083081;28;1246;-68
2023/09/08 05:43:39;;;;;;;;;;;21.40;75.00;;;;;;5082746;28;844;-69
2023/09/08 05:46:04;;;;;;;;;;;21.40;75.00;;;;;;5076841;28;1021;-69
2023/09/08 05:48:31;;;;;;;;;;;21.40;75.00;;;;;;5082428;28;851;-69
2023/09/08 05:50:56;;;;;;;;;;;21.40;75.00;;;;;;5082671;28;1218;-70
2023/09/08 05:53:21;;;;;;;;;;;21.40;75.00;;;;;;5082241;28;923;-70
2023/09/08 05:55:47;;;;;;;;;;;21.40;75.10;;;;;;5079869;28;883;-69
2023/09/08 05:58:12;;;;;;;;;;;21.40;75.10;;;;;;5078175;28;1913;-69
2023/09/08 06:00:38;;;;;;;;;;;21.40;75.10;;;;;;5080258;28;872;-68
2023/09/08 06:03:03;;;;;;;;;;;21.40;75.10;;;;;;5080762;28;1378;-68
2023/09/08 06:05:29;;;;;;;;;;;21.40;75.10;;;;;;5078194;28;1500;-69
2023/09/08 06:07:54;;;;;;;;;;;21.40;75.10;;;;;;5076503;28;1329;-69
2023/09/08 06:10:20;;;;;;;;;;;21.40;75.10;;;;;;5078072;28;1569;-68
2023/09/08 06:12:45;;;;;;;;;;;21.40;75.10;;;;;;5080771;28;1310;-68
2023/09/08 06:15:11;;;;;;;;;;;21.40;75.10;;;;;;5081075;28;914;-69
2023/09/08 06:17:36;;;;;;;;;;;21.40;75.10;;;;;;5077625;28;867;-68
2023/09/08 06:20:02;;;;;;;;;;;21.40;75.10;;;;;;5079696;28;1961;-69
2023/09/08 06:22:27;;;;;;;;;;;21.40;75.10;;;;;;5082395;28;1380;-69
2023/09/08 06:24:53;;;;;;;;;;;21.40;75.10;;;;;;5080205;28;1356;-68
2023/09/08 06:27:18;;;;;;;;;;;21.40;75.10;;;;;;5080932;28;1242;-69
2023/09/08 06:29:44;;;;;;;;;;;21.40;75.10;;;;;;5078879;28;1425;-69
2023/09/08 06:32:09;;;;;;;;;;;21.40;75.10;;;;;;5079289;28;1350;-69
2023/09/08 06:34:35;;;;;;;;;;;21.40;75.10;;;;;;5078491;28;1388;-68
2023/09/08 06:37:01;;;;;;;;;;;21.40;75.10;;;;;;5077954;28;1396;-68
2023/09/08 06:39:26;;;;;;;;;;;21.40;75.10;;;;;;5078808;28;1953;-69
2023/09/08 06:41:52;;;;;;;;;;;21.40;75.10;;;;;;5075811;28;1280;-69
2023/09/08 06:44:17;;;;;;;;;;;21.40;75.10;;;;;;5078374;28;1193;-69
2023/09/08 06:46:43;;;;;;;;;;;21.40;75.10;;;;;;5080021;28;1612;-68
2023/09/08 06:49:08;;;;;;;;;;;21.40;75.10;;;;;;5077409;28;1487;-68
2023/09/08 06:51:33;;;;;;;;;;;21.40;75.10;;;;;;5079489;28;1416;-68
2023/09/08 06:54:00;;;;;;;;;;;21.40;75.10;;;;;;5077185;28;1360;-69
2023/09/08 06:56:25;;;;;;;;;;;21.40;75.10;;;;;;5077841;28;914;-69
2023/09/08 06:58:51;;;;;;;;;;;21.40;75.10;;;;;;5077044;28;2341;-69
2023/09/08 07:01:17;;;;;;;;;;;21.40;75.10;;;;;;5077733;28;1256;-69
2023/09/08 07:03:42;;;;;;;;;;;21.40;75.10;;;;;;5077088;28;993;-69
2023/09/08 07:06:08;;;;;;;;;;;21.40;75.10;;;;;;5075530;28;839;-68
2023/09/08 07:08:33;;;;;;;;;;;21.40;75.10;;;;;;5076373;28;1061;-69
2023/09/08 07:10:59;;;;;;;;;;;21.40;75.10;;;;;;5077360;28;1261;-69
2023/09/08 07:13:24;;;;;;;;;;;21.40;75.10;;;;;;5078961;28;932;-69
2023/09/08 07:15:49;;;;;;;;;;;21.40;75.10;;;;;;5079288;28;938;-69
2023/09/08 07:18:15;;;;;;;;;;;21.40;75.10;;;;;;5079108;28;1953;-67
2023/09/08 07:20:40;;;;;;;;;;;21.40;75.10;;;;;;5076643;28;951;-66
2023/09/08 07:23:06;;;;;;;;;;;21.40;75.10;;;;;;5076744;28;1330;-66
2023/09/08 07:25:31;;;;;;;;;;;21.40;75.10;;;;;;5078303;28;1017;-66
2023/09/08 07:27:57;;;;;;;;;;;21.40;75.10;;;;;;5080317;28;1238;-67
2023/09/08 07:30:22;;;;;;;;;;;21.40;75.10;;;;;;5079703;28;922;-65
2023/09/08 07:32:48;;;;;;;;;;;21.40;75.10;;;;;;5076830;28;1347;-66
2023/09/08 07:35:16;;;;;;;;;;;21.40;75.10;;;;;;5075555;28;931;-67
2023/09/08 07:37:42;;;;;;;;;;;21.40;75.20;;;;;;5078853;28;943;-67
2023/09/08 07:40:11;;;;;;;;;;;21.40;75.10;;;;;;5083899;28;1947;-67
2023/09/08 07:42:36;;;;;;;;;;;21.40;75.10;;;;;;5080886;28;1390;-66
2023/09/08 07:45:01;;;;;;;;;;;21.40;75.20;;;;;;5074633;28;953;-65
2023/09/08 07:47:27;;;;;;;;;;;21.40;75.20;;;;;;5073260;28;919;-66
2023/09/08 07:49:53;;;;;;;;;;;21.40;75.20;;;;;;5076169;28;934;-69
2023/09/08 07:52:19;;;;;;;;;;;21.40;75.20;;;;;;5078022;28;1309;-69
2023/09/08 07:54:44;;;;;;;;;;;21.40;75.20;;;;;;5078233;28;866;-68
2023/09/08 07:57:09;;;;;;;;;;;21.40;75.20;;;;;;5077360;28;846;-68
2023/09/08 07:59:35;;;;;;;;;;;21.40;75.20;;;;;;5086575;28;1961;-68
2023/09/08 08:02:00;;;;;;;;;;;21.40;75.20;;;;;;5078518;28;1254;-69
2023/09/08 08:04:26;;;;;;;;;;;21.40;75.20;;;;;;5077921;28;1260;-69
2023/09/08 08:06:51;;;;;;;;;;;21.40;75.20;;;;;;5078527;28;1076;-69
2023/09/08 08:09:17;;;;;;;;;;;21.40;75.20;;;;;;5078135;28;861;-69
2023/09/08 08:11:42;;;;;;;;;;;21.40;75.20;;;;;;5078539;28;1264;-69
2023/09/08 08:14:08;;;;;;;;;;;21.40;75.20;;;;;;5079307;28;1192;-69
2023/09/08 08:16:34;;;;;;;;;;;21.40;75.20;;;;;;5079821;28;859;-69
2023/09/08 08:19:00;;;;;;;;;;;21.40;75.20;;;;;;5074934;28;1902;-69
2023/09/08 08:21:25;;;;;;;;;;;21.40;75.20;;;;;;5071535;28;1289;-69
2023/09/08 08:23:51;;;;;;;;;;;21.40;75.20;;;;;;5076120;28;993;-69
2023/09/08 08:26:17;;;;;;;;;;;21.40;75.20;;;;;;5077465;28;910;-69
2023/09/08 08:28:43;;;;;;;;;;;21.40;75.20;;;;;;5073262;28;1335;-69
2023/09/08 08:31:08;;;;;;;;;;;21.40;75.20;;;;;;5075853;28;1319;-69
2023/09/08 08:33:34;;;;;;;;;;;21.40;75.20;;;;;;5076634;28;911;-69
2023/09/08 08:36:00;;;;;;;;;;;21.40;75.20;;;;;;5079390;28;841;-68
2023/09/08 08:38:25;;;;;;;;;;;21.40;75.20;;;;;;5075853;28;1898;-68
2023/09/08 08:40:51;;;;;;;;;;;21.40;75.20;;;;;;5077169;28;1272;-68
2023/09/08 08:43:16;;;;;;;;;;;21.40;75.30;;;;;;5081503;28;876;-69
2023/09/08 08:45:43;;;;;;;;;;;21.40;75.20;;;;;;5082876;28;1258;-69
2023/09/08 08:48:08;;;;;;;;;;;21.40;75.20;;;;;;5080678;28;862;-69
2023/09/08 08:50:34;;;;;;;;;;;21.40;75.40;;;;;;5082235;28;875;-69
2023/09/08 08:53:00;;;;;;;;;;;21.40;75.20;;;;;;5080968;28;1295;-69
2023/09/08 08:55:25;;;;;;;;;;;21.40;75.20;;;;;;5076947;28;820;-69
2023/09/08 08:57:51;;;;;;;;;;;21.40;75.20;;;;;;5081923;28;926;-69
2023/09/08 09:00:18;;;;;;;;;;;21.40;75.20;;;;;;5079328;28;1902;-69
2023/09/08 09:02:43;;;;;;;;;;;21.40;75.20;;;;;;5082866;28;1280;-69
2023/09/08 09:05:10;;;;;;;;;;;21.40;75.20;;;;;;5082980;28;859;-69
2023/09/08 09:07:37;;;;;;;;;;;21.40;75.10;;;;;;5081917;28;895;-69
2023/09/08 09:10:03;;;;;;;;;;;21.40;75.20;;;;;;5080354;28;859;-69
2023/09/08 09:12:29;;;;;;;;;;;21.40;75.20;;;;;;5080815;28;1240;-69
2023/09/08 09:14:54;;;;;;;;;;;21.40;75.90;;;;;;5080531;28;880;-69
2023/09/08 09:17:20;;;;;;;;;;;21.40;75.10;;;;;;5080222;28;1308;-69
2023/09/08 09:19:45;;;;;;;;;;;21.40;75.20;;;;;;5078864;28;1949;-69
2023/09/08 09:22:11;;;;;;;;;;;21.50;75.20;;;;;;5082695;28;1199;-69
2023/09/08 09:24:38;;;;;;;;;;;21.40;75.20;;;;;;5078969;28;1598;-69
2023/09/08 09:27:05;;;;;;;;;;;21.40;75.20;;;;;;5078746;28;1160;-69
2023/09/08 09:29:31;;;;;;;;;;;21.40;75.20;;;;;;5083164;28;863;-68
2023/09/08 09:31:57;;;;;;;;;;;21.40;75.20;;;;;;5082036;28;1286;-69
2023/09/08 09:34:22;;;;;;;;;;;21.40;75.20;;;;;;5077817;28;915;-69
2023/09/08 09:36:51;;;;;;;;;;;21.40;75.20;;;;;;5081607;28;859;-69
2023/09/08 09:39:18;;;;;;;;;;;21.40;75.10;;;;;;5077079;28;1902;-69
2023/09/08 09:41:44;;;;;;;;;;;21.50;75.20;;;;;;5079652;28;1268;-69
2023/09/08 09:44:09;;;;;;;;;;;21.40;75.20;;;;;;5080370;28;910;-69
2023/09/08 09:46:35;;;;;;;;;;;21.40;75.10;;;;;;5076899;28;1272;-69
2023/09/08 09:49:00;;;;;;;;;;;21.40;75.20;;;;;;5075578;28;942;-68
2023/09/08 09:51:26;;;;;;;;;;;21.40;75.20;;;;;;5080131;28;1278;-68
2023/09/08 09:53:51;;;;;;;;;;;21.40;75.20;;;;;;5083934;28;1178;-68
2023/09/08 09:56:17;;;;;;;;;;;21.40;75.20;;;;;;5077069;28;1016;-69
2023/09/08 09:58:43;;;;;;;;;;;21.40;75.10;;;;;;5080750;28;1937;-68
2023/09/08 10:01:08;;;;;;;;;;;21.40;75.20;;;;;;5077296;28;1343;-68
2023/09/08 10:03:34;;;;;;;;;;;21.40;75.10;;;;;;5087430;28;883;-69
2023/09/08 10:05:59;;;;;;;;;;;21.50;75.20;;;;;;5077990;28;1062;-69
2023/09/08 10:08:25;;;;;;;;;;;21.40;75.10;;;;;;5075529;28;919;-69
2023/09/08 10:10:50;;;;;;;;;;;21.40;75.10;;;;;;5077647;28;1348;-68
2023/09/08 10:13:23;;;;;;;;;;;21.40;75.10;;;;;;5080240;28;937;-69
2023/09/08 10:15:49;;;;;;;;;;;21.40;75.10;;;;;;5082298;28;819;-69
2023/09/08 10:18:15;;;;;;;;;;;21.40;75.20;;;;;;5075657;28;1961;-69
2023/09/08 10:20:40;;;;;;;;;;;21.40;75.10;;;;;;5079304;28;792;-69
2023/09/08 10:23:08;;;;;;;;;;;21.40;75.20;;;;;;5080978;28;1133;-68
2023/09/08 10:25:35;;;;;;;;;;;21.40;75.10;;;;;;5079515;28;901;-69
2023/09/08 10:28:01;;;;;;;;;;;21.40;75.10;;;;;;5079607;28;1290;-69
2023/09/08 10:30:26;;;;;;;;;;;21.40;75.20;;;;;;5076880;28;910;-68
2023/09/08 10:32:52;;;;;;;;;;;21.40;75.10;;;;;;5076631;28;1278;-68
2023/09/08 10:35:19;;;;;;;;;;;21.50;75.20;;;;;;5077425;28;837;-68
2023/09/08 10:37:44;;;;;;;;;;;21.40;75.20;;;;;;5074084;28;1194;-68
2023/09/08 10:40:20;;;;;;;;;;;21.40;75.20;;;;;;5087340;28;1930;-69
2023/09/08 10:42:45;;;;;;;;;;;21.50;75.20;;;;;;5079890;28;1285;-68
2023/09/08 10:45:14;;;;;;;;;;;21.50;75.20;;;;;;5078501;28;912;-68
2023/09/08 10:47:46;;;;;;;;;;;21.50;75.20;;;;;;5077965;28;768;-69
2023/09/08 10:50:25;;;;;;;;;;;21.50;75.20;;;;;;5079423;28;836;-69
2023/09/08 10:53:13;;;;;;;;;;;21.40;75.20;;;;;;5081696;28;1284;-69
2023/09/08 10:55:48;;;;;;;;;;;21.50;75.20;;;;;;5079023;28;1548;-69
2023/09/08 10:58:17;;;;;;;;;;;21.50;75.20;;;;;;5074533;28;1910;-69
2023/09/08 11:00:46;;;;;;;;;;;21.50;75.20;;;;;;5086571;28;850;-69
2023/09/08 11:03:12;;;;;;;;;;;21.40;75.10;;;;;;5086257;28;1327;-69
2023/09/08 11:05:38;;;;;;;;;;;21.50;75.20;;;;;;5076185;28;1558;-69
2023/09/08 11:08:04;;;;;;;;;;;21.50;75.20;;;;;;5075201;28;979;-70
2023/09/08 11:10:30;;;;;;;;;;;21.50;75.10;;;;;;5078269;28;861;-69
2023/09/08 11:12:56;;;;;;;;;;;21.50;75.20;;;;;;5086907;28;1338;-68
2023/09/08 11:15:21;;;;;;;;;;;21.50;75.20;;;;;;5078357;28;841;-69
2023/09/08 11:17:50;;;;;;;;;;;21.50;75.10;;;;;;5072382;28;935;-69
2023/09/08 11:20:16;;;;;;;;;;;21.50;75.10;;;;;;5076402;28;1898;-69
2023/09/08 11:22:41;;;;;;;;;;;21.50;75.10;;;;;;5077523;28;1321;-69
2023/09/08 11:25:08;;;;;;;;;;;21.50;75.10;;;;;;5078979;28;850;-69
2023/09/08 11:27:33;;;;;;;;;;;21.50;75.90;;;;;;5077814;28;1559;-68
2023/09/08 11:29:58;;;;;;;;;;;21.50;75.10;;;;;;5078242;28;1005;-68
2023/09/08 11:32:24;;;;;;;;;;;21.50;75.10;;;;;;5079437;28;1358;-69
2023/09/08 11:34:50;;;;;;;;;;;21.50;75.10;;;;;;5078013;28;820;-68
2023/09/08 11:37:17;;;;;;;;;;;21.50;75.10;;;;;;5085360;28;901;-69
2023/09/08 11:39:43;;;;;;;;;;;21.50;75.10;;;;;;5078683;28;1902;-69
2023/09/08 11:42:10;;;;;;;;;;;21.50;75.10;;;;;;5078431;28;1347;-69
2023/09/08 11:44:35;;;;;;;;;;;21.50;75.10;;;;;;5077580;28;868;-69
2023/09/08 11:47:01;;;;;;;;;;;21.50;75.10;;;;;;5074142;28;1186;-69
2023/09/08 11:49:32;;;;;;;;;;;21.50;75.10;;;;;;5073234;28;820;-69
2023/09/08 11:51:57;;;;;;;;;;;21.50;75.10;;;;;;5076008;28;1271;-69
2023/09/08 11:54:23;;;;;;;;;;;21.50;75.80;;;;;;5077325;28;860;-69
2023/09/08 11:56:48;;;;;;;;;;;21.50;75.10;;;;;;5064005;28;931;-69
2023/09/08 11:59:14;;;;;;;;;;;21.50;75.10;;;;;;5076109;28;1918;-69
2023/09/08 12:01:39;;;;;;;;;;;21.50;75.10;;;;;;5077977;28;1272;-69
2023/09/08 12:04:04;;;;;;;;;;;21.50;75.10;;;;;;5077389;28;1213;-69
2023/09/08 12:06:30;;;;;;;;;;;21.50;75.10;;;;;;5075786;28;810;-69
2023/09/08 12:08:56;;;;;;;;;;;21.50;75.10;;;;;;5076537;28;954;-69
2023/09/08 12:11:21;;;;;;;;;;;21.50;75.10;;;;;;5075725;28;1257;-69
2023/09/08 12:13:47;;;;;;;;;;;21.50;75.00;;;;;;5077823;28;1042;-69
2023/09/08 12:16:24;;;;;;;;;;;21.50;75.10;;;;;;5083560;28;931;-69
2023/09/08 12:18:50;;;;;;;;;;;21.50;75.00;;;;;;5080150;28;1902;-69
2023/09/08 12:21:16;;;;;;;;;;;21.50;75.00;;;;;;5082128;28;1326;-69
2023/09/08 12:23:48;;;;;;;;;;;21.50;75.10;;;;;;5077951;28;805;-69
2023/09/08 12:26:14;;;;;;;;;;;21.50;75.00;;;;;;5082385;28;870;-69
2023/09/08 12:28:40;;;;;;;;;;;21.50;75.00;;;;;;5080548;28;1341;-69
2023/09/08 12:31:05;;;;;;;;;;;21.50;75.00;;;;;;5079627;28;1278;-69
2023/09/08 12:33:30;;;;;;;;;;;21.50;75.00;;;;;;5083647;28;847;-69
2023/09/08 12:35:56;;;;;;;;;;;21.50;75.10;;;;;;5084297;28;931;-69
2023/09/08 12:38:23;;;;;;;;;;;21.50;75.10;;;;;;5082755;28;1909;-69
2023/09/08 12:40:48;;;;;;;;;;;21.50;75.00;;;;;;5080802;28;1362;-69
2023/09/08 12:43:14;;;;;;;;;;;21.50;75.10;;;;;;5078984;28;807;-69
2023/09/08 12:45:39;;;;;;;;;;;21.50;75.10;;;;;;5080714;28;900;-69
2023/09/08 12:48:06;;;;;;;;;;;21.40;75.00;;;;;;5080332;28;783;-69
2023/09/08 12:50:32;;;;;;;;;;;21.50;75.00;;;;;;5083051;28;1064;-69
2023/09/08 12:52:57;;;;;;;;;;;21.50;75.10;;;;;;5076864;28;1188;-69
2023/09/08 12:55:23;;;;;;;;;;;21.50;75.00;;;;;;5083975;28;871;-69
2023/09/08 12:57:49;;;;;;;;;;;21.50;75.00;;;;;;5090440;28;866;-69
2023/09/08 13:00:15;;;;;;;;;;;21.50;75.10;;;;;;5084342;28;1910;-68
2023/09/08 13:02:41;;;;;;;;;;;21.50;75.00;;;;;;5081755;28;1260;-69
2023/09/08 13:05:07;;;;;;;;;;;21.50;75.00;;;;;;5082182;28;891;-69
2023/09/08 13:07:33;;;;;;;;;;;21.50;75.00;;;;;;5082023;28;884;-69
2023/09/08 13:09:58;;;;;;;;;;;21.50;75.00;;;;;;5079625;28;1006;-69
2023/09/08 13:12:24;;;;;;;;;;;21.50;75.00;;;;;;5082089;28;1349;-69
2023/09/08 13:14:50;;;;;;;;;;;21.50;75.00;;;;;;5077317;28;851;-68
2023/09/08 13:17:15;;;;;;;;;;;21.50;75.00;;;;;;5080145;28;1006;-69
2023/09/08 13:19:41;;;;;;;;;;;21.50;75.00;;;;;;5081832;28;1957;-68
2023/09/08 13:22:07;;;;;;;;;;;21.50;75.00;;;;;;5079308;28;1236;-68
2023/09/08 13:24:33;;;;;;;;;;;21.50;75.00;;;;;;5079954;28;851;-68
2023/09/08 13:26:59;;;;;;;;;;;21.50;75.10;;;;;;5088762;28;846;-68
2023/09/08 13:29:26;;;;;;;;;;;21.50;75.00;;;;;;5078746;28;1523;-68
2023/09/08 13:31:52;;;;;;;;;;;21.50;75.00;;;;;;5078136;28;1240;-69
2023/09/08 13:34:18;;;;;;;;;;;21.50;75.00;;;;;;5078695;28;869;-69
2023/09/08 13:36:43;;;;;;;;;;;21.50;75.00;;;;;;5082095;28;931;-69
2023/09/08 13:39:09;;;;;;;;;;;21.50;75.00;;;;;;5077927;28;1961;-69
2023/09/08 13:41:44;;;;;;;;;;;21.50;75.00;;;;;;5081362;28;1230;-69
2023/09/08 13:44:10;;;;;;;;;;;21.50;75.00;;;;;;5080331;28;926;-69
2023/09/08 13:46:35;;;;;;;;;;;21.50;75.00;;;;;;5083090;28;900;-69
2023/09/08 13:49:01;;;;;;;;;;;21.50;75.00;;;;;;5080424;28;1005;-69
2023/09/08 13:51:26;;;;;;;;;;;21.50;75.00;;;;;;5078658;28;1259;-69
2023/09/08 13:53:52;;;;;;;;;;;21.50;75.00;;;;;;5082362;28;871;-69
2023/09/08 13:56:17;;;;;;;;;;;21.50;75.00;;;;;;5077330;28;848;-69
2023/09/08 13:58:45;;;;;;;;;;;21.50;75.00;;;;;;5077331;28;1910;-69
2023/09/08 14:01:10;;;;;;;;;;;21.50;75.00;;;;;;5080475;28;1255;-69
2023/09/08 14:03:36;;;;;;;;;;;21.50;75.00;;;;;;5083013;28;1068;-69
2023/09/08 14:06:01;;;;;;;;;;;21.50;75.00;;;;;;5078946;28;863;-67
2023/09/08 14:08:27;;;;;;;;;;;21.50;75.00;;;;;;5077746;28;902;-68
2023/09/08 14:10:53;;;;;;;;;;;21.50;75.00;;;;;;5083106;28;1324;-68
2023/09/08 14:13:19;;;;;;;;;;;21.50;75.00;;;;;;5079991;28;914;-69
2023/09/08 14:15:44;;;;;;;;;;;21.50;75.00;;;;;;5081248;28;873;-68
2023/09/08 14:18:10;;;;;;;;;;;21.50;75.00;;;;;;5088130;28;842;-68
2023/09/08 14:20:35;;;;;;;;;;;21.50;75.00;;;;;;5081447;28;1890;-69
2023/09/08 14:23:01;;;;;;;;;;;21.50;75.00;;;;;;5079969;28;1270;-68
2023/09/08 14:25:26;;;;;;;;;;;21.50;75.00;;;;;;5079324;28;1006;-68
2023/09/08 14:27:52;;;;;;;;;;;21.50;75.00;;;;;;5080153;28;1216;-69